LMML/MLA METAR and TAF weather

Enter ICAO airport designator
Station Type Date Time Source
LMML METAR 2019/10/14 06:45 UTC NOAA

LMML 140645Z 12004KT 9999 FEW015 22/21 Q1022 NOSIG


Station Type Date Time Source
LMML Decoded METAR 2019/10/14 06:45 UTC NOAA

Luqa, Malta (LMML) 35-51N 014-29E 91M
Oct 14, 2019 - 02:45 AM EDT / 2019.10.14 0645 UTC
Wind: from the ESE (120 degrees) at 5 MPH (4 KT):0
Visibility: greater than 7 mile(s):0
Sky conditions: mostly clear
Temperature: 71 F (22 C)
Dew Point: 69 F (21 C)
Relative Humidity: 94%
Pressure (altimeter): 30.18 in. Hg (1022 hPa)
ob: LMML 140645Z 12004KT 9999 FEW015 22/21 Q1022 NOSIG
cycle: 7

Station Type Date Time Source
LMML TAF 2019/10/14 06:42 UTC NOAA

TAF TAF LMML 140500Z 1406/1506 12010KT 9999 SCT016 PROB40
TEMPO 1406/1506 BKN012

Example: see airport list